createdAt,value
2019-01-23T00:00:48.587Z,31.80
2019-01-23T00:05:51.079Z,32.13
2019-01-23T00:10:54.173Z,33.83
2019-01-23T00:15:57.092Z,35.00
2019-01-23T00:20:59.864Z,30.93
2019-01-23T00:26:02.451Z,34.90
2019-01-23T00:31:04.973Z,34.07
2019-01-23T00:36:07.478Z,33.90
2019-01-23T00:41:09.628Z,33.60
2019-01-23T00:46:12.454Z,30.97
2019-01-23T00:51:15.363Z,34.30
2019-01-23T00:56:17.826Z,36.23
2019-01-23T01:01:20.955Z,35.00
2019-01-23T01:06:23.200Z,34.57
2019-01-23T01:11:26.241Z,33.40
2019-01-23T01:16:28.950Z,35.93
2019-01-23T01:21:31.235Z,36.50
2019-01-23T01:26:32.963Z,35.23
2019-01-23T01:31:35.829Z,35.47
2019-01-23T01:36:38.312Z,34.80
2019-01-23T01:41:41.319Z,36.90
2019-01-23T01:46:43.399Z,36.87
2019-01-23T01:51:45.893Z,38.77
2019-01-23T01:56:48.892Z,37.17
2019-01-23T02:01:51.585Z,36.40
2019-01-23T02:06:53.998Z,39.40
2019-01-23T02:11:56.477Z,39.70
2019-01-23T02:16:59.103Z,39.90
2019-01-23T02:22:01.618Z,40.50
2019-01-23T02:27:04.578Z,41.20
2019-01-23T02:32:07.388Z,41.77
2019-01-23T02:37:09.907Z,43.20
2019-01-23T02:42:12.565Z,43.60
2019-01-23T02:47:15.379Z,40.27
2019-01-23T02:52:18.170Z,41.27
2019-01-23T02:57:21.057Z,44.10
2019-01-23T03:02:23.466Z,42.13
2019-01-23T03:07:25.521Z,41.17
2019-01-23T03:12:28.644Z,42.60
2019-01-23T03:17:30.649Z,39.87
2019-01-23T03:22:33.225Z,44.40
2019-01-23T03:27:35.787Z,41.73
2019-01-23T03:32:38.374Z,41.80
2019-01-23T03:37:40.703Z,40.57
2019-01-23T03:42:43.438Z,41.27
2019-01-23T03:47:46.012Z,41.30
2019-01-23T03:52:49.333Z,41.97
2019-01-23T03:57:51.888Z,41.07
2019-01-23T04:02:54.727Z,41.93
2019-01-23T04:07:57.610Z,43.17
2019-01-23T04:13:00.103Z,41.47
2019-01-23T04:18:03.423Z,41.27
2019-01-23T04:23:06.418Z,43.70
2019-01-23T04:28:08.709Z,41.27
2019-01-23T04:33:11.509Z,43.50
2019-01-23T04:38:13.706Z,42.73
2019-01-23T04:43:16.695Z,43.60
2019-01-23T04:48:19.104Z,43.73
2019-01-23T04:53:27.971Z,45.00
2019-01-23T04:58:30.435Z,44.20
2019-01-23T05:03:32.416Z,47.17
2019-01-23T05:08:34.128Z,43.37
2019-01-23T05:13:36.834Z,44.70
2019-01-23T05:18:39.502Z,44.90
2019-01-23T05:23:41.969Z,40.90
2019-01-23T05:28:44.477Z,45.00
2019-01-23T05:33:47.365Z,43.30
2019-01-23T05:38:49.512Z,42.70
2019-01-23T05:43:52.206Z,43.87
2019-01-23T05:48:54.651Z,44.90
2019-01-23T05:53:57.135Z,44.10
2019-01-23T05:58:59.172Z,46.00
2019-01-23T06:04:01.879Z,45.93
2019-01-23T06:09:07.539Z,43.17
2019-01-23T06:14:10.240Z,47.30
2019-01-23T06:19:13.188Z,46.07
2019-01-23T06:24:16.065Z,41.67
2019-01-23T06:29:18.793Z,44.70
2019-01-23T06:34:21.182Z,46.03
2019-01-23T06:39:23.319Z,49.30
2019-01-23T06:44:25.978Z,46.67
2019-01-23T06:49:28.550Z,48.37
2019-01-23T06:54:31.055Z,44.50
2019-01-23T06:59:33.540Z,45.20
2019-01-23T07:04:36.538Z,46.43
2019-01-23T07:09:38.734Z,44.20
2019-01-23T07:14:41.857Z,42.57
2019-01-23T07:19:44.551Z,46.70
2019-01-23T07:24:46.628Z,46.10
2019-01-23T07:29:49.608Z,42.83
2019-01-23T07:34:52.192Z,45.37
2019-01-23T07:39:54.947Z,44.93
2019-01-23T07:44:57.834Z,43.20
2019-01-23T07:50:00.348Z,43.27
2019-01-23T07:55:03.427Z,41.53
2019-01-23T08:00:07.928Z,41.63
2019-01-23T08:05:11.480Z,40.90
2019-01-23T08:10:15.179Z,44.67
2019-01-23T08:15:19.856Z,39.90
2019-01-23T08:20:22.829Z,40.70
2019-01-23T08:25:25.345Z,40.00
2019-01-23T08:30:28.461Z,40.80
2019-01-23T08:35:31.146Z,42.03
2019-01-23T08:40:33.870Z,40.67
2019-01-23T08:45:36.336Z,37.73
2019-01-23T08:50:41.133Z,41.07
2019-01-23T08:55:43.478Z,38.50
2019-01-23T09:00:46.306Z,41.33
2019-01-23T09:05:48.401Z,43.53
2019-01-23T09:10:51.031Z,40.57
2019-01-23T09:15:53.455Z,44.50
2019-01-23T09:20:56.332Z,42.93
2019-01-23T09:25:58.956Z,41.90
2019-01-23T09:31:29.295Z,43.03
2019-01-23T09:37:25.783Z,41.57
2019-01-23T09:42:35.517Z,44.03
2019-01-23T09:47:46.503Z,45.40
2019-01-23T09:53:16.524Z,44.53
2019-01-23T09:58:19.286Z,45.13
2019-01-23T10:03:23.107Z,43.77
2019-01-23T10:08:25.845Z,43.90
2019-01-23T10:13:28.355Z,46.70
2019-01-23T10:18:31.059Z,44.20
2019-01-23T10:23:33.752Z,44.93
2019-01-23T10:28:36.748Z,42.07
2019-01-23T10:33:39.393Z,44.30
2019-01-23T10:38:41.843Z,43.63
2019-01-23T10:43:44.773Z,45.10
2019-01-23T10:48:47.859Z,44.50
2019-01-23T10:53:50.969Z,42.90
2019-01-23T10:58:53.775Z,41.47
2019-01-23T11:03:56.167Z,44.27
2019-01-23T11:08:59.640Z,45.43
2019-01-23T11:14:02.779Z,44.03
2019-01-23T11:19:05.385Z,42.80
2019-01-23T11:24:07.879Z,41.87
2019-01-23T11:29:10.488Z,43.23
2019-01-23T11:34:13.179Z,40.00
2019-01-23T11:39:16.167Z,42.03
2019-01-23T11:44:19.396Z,42.80
2019-01-23T11:49:22.456Z,44.10
2019-01-23T11:54:25.496Z,44.87
2019-01-23T12:02:38.127Z,41.07
2019-01-23T12:07:41.012Z,41.07
2019-01-23T12:12:43.328Z,41.20
2019-01-23T12:17:46.122Z,41.00
2019-01-23T12:22:48.929Z,39.57
